Cooke City, Montana
Current Conditions -  °F | °C
As of 9:53 PM on Tuesday 21 Oct 2014 (Local Time) from KLVM Reporting Station
Overcast Overcast  
Wind Chill: 38°   Ceiling: 11000
Heat Index: 45°   Visibility: 10mi
Dew Point: 32°   Wind: 16mph
Humidity: 60%   Direction: 280°W
Pressure: 29.95"   Gusts: NA
Location:  45.02°N, 109.94°W
Report Text: KLVM 220353Z AUTO 28014KT 10SM OVC110 07/00 A2995 RMK AO2 PK WND 24032/0255 SLP126 T00720000
Loading
Personal Weather Stations






























Interactive Weather Map
Tropical Storm Tracking
New forecast layout! Learn more

10-Day Weather Forecast

Advertisements
Track Severe Weather on mobile